Birdsboro, PA (19508)

9:46 AM EDT on September 18, 2014 (GMT -0400)
KPAREADI15 | Change Station
CLOSE
Current Station
Personal Weather Station
Location: Exeter Twp, Reading, PA
Elevation: 363 ft
Nearby Weather Stations

Elev 363 ft 40.31 °N, 75.87 °W | Updated 4 seconds ago

Overcast
Overcast
56.9 °F
Feels Like 56.9 °F
N
0.9
Wind Variable Wind from SSW
Gusts 2.3 mph

Today
High -- | Low -- °F
--% Chance of Precip.
Yesterday
High -- | Low -- °F
Precip. -- in
6:47 AM 7:07 PM
Waning Crescent, 27% visible
Pressure 30.03 in
Visibility 10.0 miles
Clouds Mostly Cloudy 7000 ft
Mostly Cloudy 8500 ft
Dew Point 54 °F
Humidity 91%
Rainfall 0.00 in
Snow Depth Not available.
UV 1 out of 12
Pollen 3.00 out of 12
Ozone Good
PM2.5 Moderate
Flu Activity Not available.
METAR KRDG 181254Z AUTO 35003KT 10SM BKN070 BKN085 13/10 A3001 RMK AO2 SLP168 T01280100

More Conditions Fewer Conditions

Pressure 30.03 in
Visibility 10.0 miles
Clouds Mostly Cloudy 7000 ft
Mostly Cloudy 8500 ft
Dew Point 54 °F
Humidity 91%
Rainfall 0.00 in
Snow Depth Not available.
UV 1 out of 12
Pollen 3.00 out of 12
Ozone Good
PM2.5 Moderate
Flu Activity Not available.
METAR KRDG 181254Z AUTO 35003KT 10SM BKN070 BKN085 13/10 A3001 RMK AO2 SLP168 T01280100

More Conditions Fewer Conditions

10-Day Weather Forecast

Almanac

Astronomy

Sep. 18, 2014 Rise Set
Actual Time 6:47 AM EDT 7:07 PM EDT
Civil Twilight 6:19 AM EDT 7:34 PM EDT
Nautical Twilight 5:47 AM EDT 8:06 PM EDT
Astronomical Twilight 5:15 AM EDT 8:38 PM EDT
Moon 1:36 AM EDT 3:57 PM EDT
Length of Visible Light 13h 14m
Length of Day
12h 20m
Tomorrow will be 2m 38s shorter.
Waning Crescent, 27% of the Moon is Illuminated
Today
Waning Crescent
Sep 24
New
Oct 1
First Quarter
Oct 8
Full
Oct 15
Last Quarter

Today's Extremes

State Highs State Lows

Community

WunderPhotos

Upload Photos

1,754,347 photos uploaded!

Nearby

Air Quality

  Air Quality AQ Index Pollutant
Yesterday Good
OZONE
Yesterday Good
PM2.5
Current Moderate
PM2.5
Current Good
OZONE
Thursday Moderate
PM2.5
Friday Good
PM2.5

Snow Depth

Station Depth Elevation
No new snow has been reported.

Earthquake Activity

City Distance Mag. Time & Date
No recent earthquake activity has been reported nearby.
Minimum magnitude displayed is 2.5.

Coastal Water Temperatures

Place Temperature
No Stations Reporting

Nearby Weather Stations